createdAt,value
2019-02-19T00:00:57.651Z,99.90
2019-02-19T00:02:04.499Z,99.90
2019-02-19T00:03:09.958Z,99.90
2019-02-19T00:04:14.755Z,99.90
2019-02-19T00:05:19.547Z,99.90
2019-02-19T00:06:24.353Z,99.90
2019-02-19T00:07:32.205Z,99.90
2019-02-19T00:08:36.959Z,99.90
2019-02-19T00:09:42.068Z,99.90
2019-02-19T00:10:46.967Z,99.90
2019-02-19T00:11:52.204Z,99.90
2019-02-19T00:12:56.991Z,99.90
2019-02-19T00:14:01.770Z,99.90
2019-02-19T00:15:08.484Z,99.90
2019-02-19T00:16:13.953Z,99.90
2019-02-19T00:17:20.991Z,99.90
2019-02-19T00:18:25.822Z,99.90
2019-02-19T00:19:34.021Z,99.90
2019-02-19T00:20:39.191Z,99.90
2019-02-19T00:21:44.077Z,99.90
2019-02-19T00:22:49.332Z,99.90
2019-02-19T00:23:55.952Z,99.90
2019-02-19T00:25:00.733Z,99.90
2019-02-19T00:26:15.867Z,99.90
2019-02-19T00:27:20.679Z,99.90
2019-02-19T00:28:25.498Z,99.90
2019-02-19T00:29:35.166Z,99.90
2019-02-19T00:30:41.441Z,99.90
2019-02-19T00:31:47.813Z,99.90
2019-02-19T00:32:53.045Z,99.90
2019-02-19T00:33:58.213Z,99.90
2019-02-19T00:35:03.242Z,99.90
2019-02-19T00:36:08.424Z,99.90
2019-02-19T00:37:13.315Z,99.90
2019-02-19T00:38:21.779Z,99.90
2019-02-19T00:39:27.906Z,99.90
2019-02-19T00:40:33.153Z,99.90
2019-02-19T00:41:38.193Z,99.90
2019-02-19T00:42:43.238Z,99.90
2019-02-19T00:43:51.058Z,99.90
2019-02-19T00:44:55.916Z,99.90
2019-02-19T00:46:00.705Z,99.90
2019-02-19T00:47:05.496Z,99.90
2019-02-19T00:48:10.314Z,99.90
2019-02-19T00:49:15.078Z,99.90
2019-02-19T00:50:19.911Z,99.90
2019-02-19T00:51:25.019Z,99.90
2019-02-19T00:52:33.050Z,99.90
2019-02-19T00:53:38.179Z,99.90
2019-02-19T00:54:43.282Z,99.90
2019-02-19T00:55:48.394Z,99.90
2019-02-19T00:56:53.430Z,99.90
2019-02-19T00:57:58.238Z,99.90
2019-02-19T00:59:03.216Z,99.90
2019-02-19T01:00:09.187Z,99.90
2019-02-19T01:01:14.028Z,99.90
2019-02-19T01:02:21.096Z,99.90
2019-02-19T01:03:26.113Z,99.90
2019-02-19T01:04:31.356Z,99.90
2019-02-19T01:05:36.095Z,99.90
2019-02-19T01:06:40.979Z,99.90
2019-02-19T01:07:45.730Z,99.90
2019-02-19T01:08:50.615Z,99.90
2019-02-19T01:09:55.503Z,99.90
2019-02-19T01:11:00.633Z,99.90
2019-02-19T01:12:05.655Z,99.90
2019-02-19T01:13:10.596Z,99.90
2019-02-19T01:14:16.109Z,99.90
2019-02-19T01:15:25.718Z,99.90
2019-02-19T01:16:30.982Z,99.90
2019-02-19T01:17:36.251Z,99.90
2019-02-19T01:18:41.115Z,99.90
2019-02-19T01:19:46.202Z,99.90
2019-02-19T01:20:51.385Z,99.90
2019-02-19T01:21:56.292Z,99.90
2019-02-19T01:23:01.065Z,99.90
2019-02-19T01:24:06.191Z,99.90
2019-02-19T01:25:11.139Z,99.90
2019-02-19T01:26:16.240Z,99.90
2019-02-19T01:27:21.170Z,99.90
2019-02-19T01:28:26.382Z,99.90
2019-02-19T01:29:31.245Z,99.90
2019-02-19T01:30:36.114Z,99.90
2019-02-19T01:31:40.899Z,99.90
2019-02-19T01:32:45.652Z,99.90
2019-02-19T01:33:50.453Z,99.90
2019-02-19T01:34:55.255Z,99.90
2019-02-19T01:36:00.079Z,99.90
2019-02-19T01:37:05.174Z,99.90
2019-02-19T01:38:10.377Z,99.90
2019-02-19T01:39:15.212Z,99.90
2019-02-19T01:40:20.559Z,99.90
2019-02-19T01:41:27.307Z,99.90
2019-02-19T01:42:32.267Z,99.90
2019-02-19T01:43:37.051Z,99.90
2019-02-19T01:44:43.810Z,99.90
2019-02-19T01:45:48.402Z,99.90
2019-02-19T01:46:53.311Z,99.90
2019-02-19T01:47:58.274Z,99.90
2019-02-19T01:49:03.196Z,99.90
2019-02-19T01:50:11.299Z,99.90
2019-02-19T01:51:16.071Z,99.90
2019-02-19T01:52:20.858Z,99.90
2019-02-19T01:53:25.632Z,99.90
2019-02-19T01:54:30.846Z,99.90
2019-02-19T01:55:35.653Z,99.90
2019-02-19T01:56:40.462Z,99.90
2019-02-19T01:57:45.261Z,99.90
2019-02-19T01:58:50.099Z,99.90
2019-02-19T01:59:54.910Z,99.90
2019-02-19T02:00:59.678Z,99.90
2019-02-19T02:02:05.271Z,99.90
2019-02-19T02:03:13.274Z,99.90
2019-02-19T02:04:18.121Z,99.90
2019-02-19T02:05:23.212Z,99.90
2019-02-19T02:06:27.962Z,99.90
2019-02-19T02:07:35.711Z,99.90
2019-02-19T02:08:43.908Z,99.90
2019-02-19T02:09:50.407Z,99.90
2019-02-19T02:10:55.381Z,99.90
2019-02-19T02:12:00.168Z,99.90
2019-02-19T02:13:05.124Z,99.90
2019-02-19T02:14:10.019Z,99.90
2019-02-19T02:15:15.218Z,99.90
2019-02-19T02:16:20.000Z,99.90
2019-02-19T02:17:24.762Z,99.90
2019-02-19T02:18:29.595Z,99.90
2019-02-19T02:19:34.758Z,99.90
2019-02-19T02:20:41.294Z,99.90
2019-02-19T02:21:46.026Z,99.90
2019-02-19T02:22:50.998Z,99.90
2019-02-19T02:23:56.003Z,99.90
2019-02-19T02:25:03.648Z,99.90
2019-02-19T02:26:08.998Z,99.90
2019-02-19T02:27:16.229Z,99.90
2019-02-19T02:28:24.725Z,99.90
2019-02-19T02:29:32.348Z,99.90
2019-02-19T02:30:39.146Z,99.90
2019-02-19T02:31:44.366Z,99.90
2019-02-19T02:32:49.127Z,99.90
2019-02-19T02:33:53.903Z,99.90
2019-02-19T02:34:58.902Z,99.90
2019-02-19T02:36:06.726Z,99.90
2019-02-19T02:37:12.896Z,99.90
2019-02-19T02:38:19.224Z,99.90
2019-02-19T02:39:26.209Z,99.90
2019-02-19T02:40:31.403Z,99.90
2019-02-19T02:41:38.577Z,99.90
2019-02-19T02:42:43.881Z,99.90
2019-02-19T02:43:48.878Z,99.90
2019-02-19T02:44:55.867Z,99.90
2019-02-19T02:46:01.899Z,99.90
2019-02-19T02:47:06.841Z,99.90
2019-02-19T02:48:11.742Z,99.90
2019-02-19T02:49:16.526Z,99.90
2019-02-19T02:50:21.353Z,99.90
2019-02-19T02:51:26.194Z,99.90
2019-02-19T02:52:30.938Z,99.90
2019-02-19T02:53:35.788Z,99.90
2019-02-19T02:54:40.743Z,99.90
2019-02-19T02:55:45.620Z,99.90
2019-02-19T02:56:50.962Z,99.90
2019-02-19T02:57:55.758Z,99.90
2019-02-19T02:59:00.532Z,99.90
2019-02-19T03:00:05.621Z,99.90
2019-02-19T03:01:10.503Z,99.90
2019-02-19T03:02:15.302Z,99.90
2019-02-19T03:03:20.965Z,99.90
2019-02-19T03:04:26.163Z,99.90
2019-02-19T03:05:30.941Z,99.90
2019-02-19T03:06:43.498Z,99.90
2019-02-19T03:07:51.206Z,99.90
2019-02-19T03:08:55.990Z,99.90
2019-02-19T03:10:01.593Z,99.90
2019-02-19T03:11:06.383Z,99.90
2019-02-19T03:12:11.213Z,99.90
2019-02-19T03:13:15.973Z,99.90
2019-02-19T03:14:21.117Z,99.90
2019-02-19T03:15:26.009Z,99.90
2019-02-19T03:16:31.379Z,99.90
2019-02-19T03:17:36.281Z,99.90
2019-02-19T03:18:41.046Z,99.90
2019-02-19T03:19:46.184Z,99.90
2019-02-19T03:20:52.218Z,99.90
2019-02-19T03:21:57.005Z,99.90
2019-02-19T03:23:02.346Z,99.90
2019-02-19T03:24:07.182Z,99.90
2019-02-19T03:25:11.982Z,99.90
2019-02-19T03:26:16.978Z,99.90
2019-02-19T03:27:21.778Z,99.90
2019-02-19T03:28:26.705Z,99.90
2019-02-19T03:29:31.694Z,99.90
2019-02-19T03:30:36.487Z,99.90
2019-02-19T03:31:41.270Z,99.90
2019-02-19T03:32:46.082Z,99.90
2019-02-19T03:33:50.895Z,99.90
2019-02-19T03:34:55.720Z,99.90
2019-02-19T03:36:00.521Z,99.90
2019-02-19T03:37:05.331Z,99.90
2019-02-19T03:38:10.231Z,99.90
2019-02-19T03:39:15.078Z,99.90
2019-02-19T03:40:19.855Z,99.90
2019-02-19T03:41:24.673Z,99.90
2019-02-19T03:42:29.482Z,99.90
2019-02-19T03:43:34.409Z,99.90
2019-02-19T03:44:39.428Z,99.90
2019-02-19T03:45:44.679Z,99.90
2019-02-19T03:46:49.492Z,99.90
2019-02-19T03:47:54.278Z,99.90
2019-02-19T03:48:59.072Z,99.90
2019-02-19T03:50:03.988Z,99.90
2019-02-19T03:51:08.816Z,99.90
2019-02-19T03:52:14.006Z,99.90
2019-02-19T03:53:18.919Z,99.90
2019-02-19T03:54:26.342Z,99.90
2019-02-19T03:55:31.561Z,99.90
2019-02-19T03:56:36.740Z,99.90
2019-02-19T03:57:41.677Z,99.90
2019-02-19T03:58:46.817Z,99.90
2019-02-19T03:59:51.694Z,99.90
2019-02-19T04:00:56.443Z,99.90
2019-02-19T04:02:01.224Z,99.90
2019-02-19T04:03:06.475Z,99.90
2019-02-19T04:04:11.711Z,99.90
2019-02-19T04:05:16.510Z,99.90
2019-02-19T04:06:21.246Z,99.90
2019-02-19T04:07:26.037Z,99.90
2019-02-19T04:08:30.818Z,99.90
2019-02-19T04:09:35.605Z,99.90
2019-02-19T04:10:40.751Z,99.90
2019-02-19T04:11:45.514Z,99.90
2019-02-19T04:12:50.296Z,99.90
2019-02-19T04:13:55.296Z,99.90
2019-02-19T04:15:00.507Z,99.90
2019-02-19T04:16:05.583Z,99.90
2019-02-19T04:17:10.299Z,99.90
2019-02-19T04:18:16.092Z,99.90
2019-02-19T04:19:20.949Z,99.90
2019-02-19T04:20:25.742Z,99.90
2019-02-19T04:21:30.520Z,99.90
2019-02-19T04:22:35.731Z,99.90
2019-02-19T04:23:40.560Z,99.90
2019-02-19T04:24:45.381Z,99.90
2019-02-19T04:25:50.219Z,99.90
2019-02-19T04:26:54.978Z,99.90
2019-02-19T04:27:59.805Z,99.90
2019-02-19T04:29:05.251Z,99.90
2019-02-19T04:30:10.426Z,99.90
2019-02-19T04:31:15.261Z,99.90
2019-02-19T04:32:20.039Z,99.90
2019-02-19T04:33:24.850Z,99.90
2019-02-19T04:34:30.036Z,99.90
2019-02-19T04:35:35.097Z,99.90
2019-02-19T04:36:42.962Z,99.90
2019-02-19T04:37:47.727Z,99.90
2019-02-19T04:38:52.574Z,99.90
2019-02-19T04:39:57.420Z,99.90
2019-02-19T04:41:02.697Z,99.90
2019-02-19T04:42:07.482Z,99.90
2019-02-19T04:43:12.291Z,99.90
2019-02-19T04:46:31.537Z,99.90
2019-02-19T04:47:34.398Z,99.90
2019-02-19T04:48:39.222Z,99.90
2019-02-19T04:49:43.942Z,99.90
2019-02-19T04:50:49.075Z,99.90
2019-02-19T04:51:53.818Z,99.90
2019-02-19T04:53:02.055Z,99.90
2019-02-19T04:54:06.823Z,99.90
2019-02-19T04:55:11.539Z,99.90
2019-02-19T04:56:16.295Z,99.90
2019-02-19T04:57:21.036Z,99.90
2019-02-19T04:58:25.764Z,99.90
2019-02-19T04:59:31.083Z,99.90
2019-02-19T05:00:35.827Z,99.90
2019-02-19T05:01:40.576Z,99.90
2019-02-19T05:02:45.554Z,99.90
2019-02-19T05:03:51.257Z,99.90
2019-02-19T05:04:56.231Z,99.90
2019-02-19T05:06:01.334Z,99.90
2019-02-19T05:07:06.383Z,99.90
2019-02-19T05:08:11.378Z,99.90
2019-02-19T05:09:16.099Z,99.90
2019-02-19T05:10:20.885Z,99.90
2019-02-19T05:11:27.536Z,99.90
2019-02-19T05:12:32.707Z,99.90
2019-02-19T05:13:37.419Z,99.90
2019-02-19T05:14:42.212Z,99.90
2019-02-19T05:15:46.989Z,99.90
2019-02-19T05:16:51.713Z,99.90
2019-02-19T05:17:56.919Z,99.90
2019-02-19T05:19:01.667Z,99.90
2019-02-19T05:20:06.704Z,99.90
2019-02-19T05:21:11.517Z,99.90
2019-02-19T05:22:16.277Z,99.90
2019-02-19T05:23:21.135Z,99.90
2019-02-19T05:24:26.278Z,99.90
2019-02-19T05:25:31.294Z,99.90
2019-02-19T05:26:36.061Z,99.90
2019-02-19T05:27:40.834Z,99.90
2019-02-19T05:28:45.576Z,99.90
2019-02-19T05:29:51.348Z,99.90
2019-02-19T05:30:58.151Z,99.90
2019-02-19T05:32:02.876Z,99.90
2019-02-19T05:33:07.795Z,99.90
2019-02-19T05:34:12.931Z,99.90
2019-02-19T05:35:17.833Z,99.90
2019-02-19T05:36:22.567Z,99.90
2019-02-19T05:37:27.771Z,99.90
2019-02-19T05:38:32.476Z,99.90
2019-02-19T05:39:37.257Z,99.90
2019-02-19T05:40:42.102Z,99.90
2019-02-19T05:41:47.272Z,99.90
2019-02-19T05:42:52.059Z,99.90
2019-02-19T05:43:57.276Z,99.90
2019-02-19T05:45:02.159Z,99.90
2019-02-19T05:46:06.933Z,99.90
2019-02-19T05:47:11.709Z,99.90
2019-02-19T05:48:16.449Z,99.90
2019-02-19T05:49:21.179Z,99.90
2019-02-19T05:50:26.492Z,99.90
2019-02-19T05:51:31.377Z,99.90
2019-02-19T05:52:36.094Z,99.90
2019-02-19T05:53:40.818Z,99.90
2019-02-19T05:54:45.548Z,99.90
2019-02-19T05:55:50.337Z,99.90
2019-02-19T05:56:55.115Z,99.90
2019-02-19T05:57:59.840Z,99.90
2019-02-19T05:59:04.572Z,99.90
2019-02-19T06:00:11.600Z,99.90
2019-02-19T06:01:16.380Z,99.90
2019-02-19T06:02:21.269Z,99.90
2019-02-19T06:03:29.014Z,99.90
2019-02-19T06:04:34.107Z,99.90
2019-02-19T06:05:38.787Z,99.90
2019-02-19T06:06:43.557Z,99.90
2019-02-19T06:07:48.375Z,99.90
2019-02-19T06:08:53.149Z,99.90
2019-02-19T06:09:57.887Z,99.90
2019-02-19T06:11:02.567Z,99.90
2019-02-19T06:12:07.291Z,99.90
2019-02-19T06:13:12.011Z,99.90
2019-02-19T06:14:16.792Z,99.90
2019-02-19T06:15:21.544Z,99.90
2019-02-19T06:16:26.362Z,99.90
2019-02-19T06:17:33.994Z,99.90
2019-02-19T06:18:38.715Z,99.90
2019-02-19T06:19:43.557Z,99.90
2019-02-19T06:20:48.281Z,99.90
2019-02-19T06:21:53.058Z,99.90
2019-02-19T06:22:57.775Z,99.90
2019-02-19T06:24:02.498Z,99.90
2019-02-19T06:25:08.326Z,99.90
2019-02-19T06:26:16.183Z,99.90
2019-02-19T06:27:20.934Z,99.90
2019-02-19T06:28:25.905Z,99.90
2019-02-19T06:29:30.963Z,99.90
2019-02-19T06:30:38.083Z,99.90
2019-02-19T06:31:54.281Z,99.90
2019-02-19T06:33:00.880Z,99.90
2019-02-19T06:34:07.586Z,99.90
2019-02-19T06:35:12.502Z,99.90
2019-02-19T06:36:17.231Z,99.90
2019-02-19T06:37:21.950Z,99.90
2019-02-19T06:38:27.022Z,99.90
2019-02-19T06:39:33.478Z,99.90
2019-02-19T06:40:38.300Z,99.90
2019-02-19T06:41:46.012Z,99.90
2019-02-19T06:42:52.059Z,99.90
2019-02-19T06:43:59.805Z,99.90
2019-02-19T06:45:09.054Z,99.90
2019-02-19T06:46:14.344Z,99.90
2019-02-19T06:47:22.652Z,99.90
2019-02-19T06:48:27.502Z,99.90
2019-02-19T06:49:32.284Z,99.90
2019-02-19T06:50:38.306Z,99.90
2019-02-19T06:51:43.812Z,99.90
2019-02-19T06:52:49.562Z,99.90
2019-02-19T06:53:54.893Z,99.90
2019-02-19T06:54:59.857Z,99.90
2019-02-19T06:56:04.741Z,99.90
2019-02-19T06:57:09.650Z,99.90
2019-02-19T06:58:14.868Z,99.90
2019-02-19T06:59:20.186Z,99.90
2019-02-19T07:00:25.254Z,99.90
2019-02-19T07:01:47.293Z,99.90
2019-02-19T07:03:11.218Z,99.90
2019-02-19T07:04:28.170Z,99.90
2019-02-19T07:05:33.049Z,99.90
2019-02-19T07:06:40.778Z,99.90
2019-02-19T07:07:45.522Z,99.90
2019-02-19T07:08:50.203Z,99.90
2019-02-19T07:09:56.172Z,99.90
2019-02-19T07:11:04.146Z,99.90
2019-02-19T07:12:09.229Z,99.90
2019-02-19T07:13:14.101Z,99.90
2019-02-19T07:14:18.890Z,99.90
2019-02-19T07:15:23.684Z,99.90
2019-02-19T07:16:29.571Z,99.90
2019-02-19T07:17:34.370Z,99.90
2019-02-19T07:18:39.080Z,99.90
2019-02-19T07:19:43.926Z,99.90
2019-02-19T07:20:49.007Z,99.90
2019-02-19T07:21:54.074Z,99.90
2019-02-19T07:22:59.192Z,99.90
2019-02-19T07:24:04.624Z,99.90
2019-02-19T07:25:09.674Z,99.90
2019-02-19T07:26:14.524Z,99.90
2019-02-19T07:27:19.793Z,99.90
2019-02-19T07:28:24.533Z,99.90
2019-02-19T07:29:29.296Z,99.90
2019-02-19T07:30:36.816Z,99.90
2019-02-19T07:31:41.637Z,99.90
2019-02-19T07:32:46.865Z,99.90
2019-02-19T07:33:51.613Z,99.90
2019-02-19T07:34:56.364Z,99.90
2019-02-19T07:36:01.182Z,99.90
2019-02-19T07:37:08.689Z,99.90
2019-02-19T07:38:13.478Z,99.90
2019-02-19T07:39:18.196Z,99.90
2019-02-19T07:40:28.630Z,99.90
2019-02-19T07:41:33.774Z,99.90
2019-02-19T07:42:38.551Z,99.90
2019-02-19T07:43:45.717Z,99.90
2019-02-19T07:44:50.857Z,99.90
2019-02-19T07:45:56.176Z,99.90
2019-02-19T07:47:00.928Z,99.90
2019-02-19T07:48:06.080Z,99.90
2019-02-19T07:49:13.148Z,99.90
2019-02-19T07:50:17.937Z,99.90
2019-02-19T07:51:23.844Z,99.90
2019-02-19T07:52:28.560Z,99.90
2019-02-19T07:53:33.490Z,99.90
2019-02-19T07:54:38.269Z,99.90
2019-02-19T07:56:04.832Z,99.90
2019-02-19T07:57:09.757Z,99.90
2019-02-19T07:58:14.681Z,99.90
2019-02-19T07:59:23.196Z,99.90
2019-02-19T08:00:28.030Z,99.90
2019-02-19T08:01:32.984Z,99.90
2019-02-19T08:02:46.817Z,99.90
2019-02-19T08:03:51.934Z,99.90
2019-02-19T08:04:59.625Z,99.90
2019-02-19T08:06:04.540Z,99.90
2019-02-19T08:07:10.689Z,99.90
2019-02-19T08:08:17.485Z,99.90
2019-02-19T08:09:22.234Z,99.90
2019-02-19T08:10:29.071Z,99.90
2019-02-19T08:11:34.128Z,99.90
2019-02-19T08:12:39.270Z,99.90
2019-02-19T08:13:44.521Z,99.90
2019-02-19T08:14:49.241Z,99.90
2019-02-19T08:16:01.468Z,99.90
2019-02-19T08:17:09.168Z,99.90
2019-02-19T08:18:14.423Z,99.90
2019-02-19T08:19:19.465Z,99.90
2019-02-19T08:20:24.433Z,99.90
2019-02-19T08:21:32.281Z,99.90
2019-02-19T08:22:41.460Z,99.90
2019-02-19T08:23:49.279Z,99.90
2019-02-19T08:24:54.326Z,99.90
2019-02-19T08:25:59.600Z,99.90
2019-02-19T08:27:04.327Z,99.90
2019-02-19T08:28:09.441Z,99.90
2019-02-19T08:29:14.354Z,99.90
2019-02-19T08:30:21.838Z,99.90
2019-02-19T08:31:30.428Z,99.90
2019-02-19T08:32:35.284Z,99.90
2019-02-19T08:33:39.992Z,99.90
2019-02-19T08:34:44.793Z,99.90
2019-02-19T08:35:51.007Z,99.90
2019-02-19T08:36:55.879Z,99.90
2019-02-19T08:38:00.673Z,99.90
2019-02-19T08:39:05.984Z,99.90
2019-02-19T08:40:11.003Z,99.90
2019-02-19T08:41:17.993Z,99.90
2019-02-19T08:42:24.289Z,99.90
2019-02-19T08:43:29.155Z,99.90
2019-02-19T08:44:39.925Z,99.90
2019-02-19T08:45:46.830Z,99.90
2019-02-19T08:46:51.801Z,99.90
2019-02-19T08:47:56.590Z,99.90
2019-02-19T08:49:02.161Z,99.90
2019-02-19T08:50:08.197Z,99.90
2019-02-19T08:51:13.393Z,99.90
2019-02-19T08:52:18.845Z,99.90
2019-02-19T08:53:24.118Z,99.90
2019-02-19T08:54:28.932Z,99.90
2019-02-19T08:55:34.888Z,99.90
2019-02-19T08:56:40.224Z,99.90
2019-02-19T08:57:45.372Z,99.90
2019-02-19T08:58:50.212Z,99.90
2019-02-19T09:00:02.747Z,99.90
2019-02-19T09:01:11.441Z,99.90
2019-02-19T09:02:16.209Z,99.90
2019-02-19T09:03:24.522Z,99.90
2019-02-19T09:04:31.205Z,99.90
2019-02-19T09:05:36.385Z,99.90
2019-02-19T09:06:41.436Z,99.90
2019-02-19T09:07:52.114Z,99.90
2019-02-19T09:08:59.768Z,99.90
2019-02-19T09:10:07.246Z,99.90
2019-02-19T09:11:13.183Z,99.90
2019-02-19T09:12:18.083Z,99.90
2019-02-19T09:13:23.122Z,99.90
2019-02-19T09:15:39.505Z,99.90
2019-02-19T09:16:57.416Z,99.90
2019-02-19T09:18:21.166Z,99.90
2019-02-19T09:19:29.951Z,99.90
2019-02-19T09:20:40.541Z,99.90
2019-02-19T09:21:57.033Z,99.90
2019-02-19T09:23:02.491Z,99.90
2019-02-19T09:24:09.912Z,99.90
2019-02-19T09:25:18.618Z,99.90
2019-02-19T09:26:23.783Z,99.90
2019-02-19T09:27:34.823Z,99.90
2019-02-19T09:28:42.739Z,99.90
2019-02-19T09:29:53.891Z,99.90
2019-02-19T09:30:59.407Z,99.90
2019-02-19T09:32:07.133Z,99.90
2019-02-19T09:33:12.920Z,99.90
2019-02-19T09:34:20.600Z,99.90
2019-02-19T09:35:25.930Z,99.90
2019-02-19T09:36:31.083Z,99.90
2019-02-19T09:37:44.149Z,99.90
2019-02-19T09:38:57.204Z,99.90
2019-02-19T09:40:05.463Z,99.90
2019-02-19T09:41:11.889Z,99.90
2019-02-19T09:42:18.483Z,99.90
2019-02-19T09:43:35.319Z,99.90
2019-02-19T09:44:36.085Z,99.90
2019-02-19T09:45:41.604Z,99.90
2019-02-19T09:46:51.048Z,99.90
2019-02-19T09:48:01.207Z,99.90
2019-02-19T09:49:06.683Z,99.90
2019-02-19T09:50:16.512Z,99.90
2019-02-19T09:51:21.261Z,99.90
2019-02-19T09:52:27.097Z,99.90
2019-02-19T09:53:32.483Z,99.90
2019-02-19T09:54:44.947Z,99.90
2019-02-19T09:55:49.826Z,99.90
2019-02-19T09:56:54.988Z,99.90
2019-02-19T09:58:04.694Z,99.90
2019-02-19T09:59:16.822Z,99.90
2019-02-19T10:00:23.941Z,99.90
2019-02-19T10:01:32.520Z,99.90
2019-02-19T10:02:40.282Z,99.90
2019-02-19T10:03:48.949Z,99.90
2019-02-19T10:04:53.993Z,99.90
2019-02-19T10:06:15.538Z,99.90
2019-02-19T10:07:21.404Z,99.90
2019-02-19T10:08:26.163Z,99.90
2019-02-19T10:09:31.365Z,99.90
2019-02-19T10:10:42.140Z,99.90
2019-02-19T10:11:46.894Z,99.90
2019-02-19T10:12:51.893Z,99.90
2019-02-19T10:13:59.409Z,99.90
2019-02-19T10:15:04.596Z,99.90
2019-02-19T10:16:24.295Z,99.90
2019-02-19T10:17:33.354Z,99.90
2019-02-19T10:18:39.144Z,99.90
2019-02-19T10:19:44.181Z,99.90
2019-02-19T10:20:48.959Z,99.90
2019-02-19T10:21:57.190Z,99.90
2019-02-19T10:23:03.443Z,99.90
2019-02-19T10:24:08.450Z,99.90
2019-02-19T10:25:15.859Z,99.90
2019-02-19T10:26:21.008Z,99.90
2019-02-19T10:27:29.246Z,99.90
2019-02-19T10:28:35.469Z,99.90
2019-02-19T10:29:40.225Z,99.90
2019-02-19T10:30:46.344Z,99.90
2019-02-19T10:31:52.086Z,99.90
2019-02-19T10:32:56.966Z,99.90
2019-02-19T10:34:03.546Z,99.90
2019-02-19T10:35:11.045Z,99.90
2019-02-19T10:36:16.086Z,99.90
2019-02-19T10:37:23.321Z,99.90
2019-02-19T10:38:28.203Z,99.90
2019-02-19T10:39:34.293Z,99.90
2019-02-19T10:40:44.548Z,99.90
2019-02-19T10:41:49.260Z,99.90
2019-02-19T10:42:58.627Z,99.90
2019-02-19T10:44:03.370Z,99.90
2019-02-19T10:45:17.061Z,99.90
2019-02-19T10:46:25.566Z,99.90
2019-02-19T10:47:31.992Z,99.90
2019-02-19T10:48:45.206Z,99.90
2019-02-19T10:49:59.160Z,99.90
2019-02-19T10:51:05.680Z,99.90
2019-02-19T10:52:11.097Z,99.90
2019-02-19T10:53:18.796Z,99.90
2019-02-19T10:54:31.007Z,99.90
2019-02-19T10:55:36.323Z,99.90
2019-02-19T10:56:41.412Z,99.90
2019-02-19T10:57:46.200Z,99.90
2019-02-19T10:58:51.744Z,99.90
2019-02-19T10:59:59.780Z,99.90
2019-02-19T11:01:06.371Z,99.90
2019-02-19T11:02:11.441Z,99.90
2019-02-19T11:03:19.614Z,99.90
2019-02-19T11:04:35.246Z,99.90
2019-02-19T11:05:52.123Z,99.90
2019-02-19T11:07:13.747Z,99.90
2019-02-19T11:08:25.939Z,99.90
2019-02-19T11:09:31.188Z,99.90
2019-02-19T11:10:43.383Z,99.90
2019-02-19T11:11:49.782Z,99.90
2019-02-19T11:13:00.083Z,99.90
2019-02-19T11:14:04.765Z,99.90
2019-02-19T11:15:12.926Z,99.90
2019-02-19T11:16:26.273Z,99.90
2019-02-19T11:17:38.961Z,99.90
2019-02-19T11:18:44.763Z,99.90
2019-02-19T11:19:52.543Z,99.90
2019-02-19T11:20:57.814Z,99.90
2019-02-19T11:22:02.893Z,99.90
2019-02-19T11:23:08.005Z,99.90
2019-02-19T11:24:14.312Z,99.90
2019-02-19T11:25:22.815Z,99.90
2019-02-19T11:26:27.865Z,99.90
2019-02-19T11:27:39.210Z,99.90
2019-02-19T11:28:50.064Z,99.90
2019-02-19T11:29:59.273Z,99.90
2019-02-19T11:31:06.102Z,99.90
2019-02-19T11:32:20.388Z,99.90
2019-02-19T11:33:34.568Z,99.90
2019-02-19T11:34:43.328Z,99.90
2019-02-19T11:35:49.681Z,99.90
2019-02-19T11:36:58.229Z,99.90
2019-02-19T11:38:10.829Z,99.90
2019-02-19T11:39:22.627Z,99.90
2019-02-19T11:40:27.122Z,99.90
2019-02-19T11:41:36.659Z,99.90
2019-02-19T11:42:54.379Z,99.90
2019-02-19T11:43:59.283Z,99.90
2019-02-19T11:45:09.093Z,99.90
2019-02-19T11:46:12.050Z,99.90
2019-02-19T11:47:26.652Z,99.90
2019-02-19T11:48:36.732Z,99.90
2019-02-19T11:49:36.195Z,99.90
2019-02-19T11:50:43.246Z,99.90
2019-02-19T11:51:49.129Z,99.90
2019-02-19T11:52:55.249Z,99.90
2019-02-19T11:54:02.000Z,99.90
2019-02-19T11:55:09.321Z,99.90
2019-02-19T11:56:24.258Z,99.90
2019-02-19T11:57:31.530Z,99.90
2019-02-19T11:58:37.263Z,99.90
2019-02-19T11:59:42.752Z,99.90
2019-02-19T12:00:57.232Z,99.90
2019-02-19T12:02:09.636Z,99.90
2019-02-19T12:03:15.418Z,99.90
2019-02-19T12:04:20.325Z,99.90
2019-02-19T12:05:27.691Z,99.90
2019-02-19T12:06:33.404Z,95.20
2019-02-19T12:07:41.345Z,91.50
2019-02-19T12:08:51.811Z,88.00
2019-02-19T12:09:56.662Z,84.30
2019-02-19T12:11:04.084Z,80.70
2019-02-19T12:12:09.156Z,78.20
2019-02-19T12:13:18.869Z,74.90
2019-02-19T12:14:23.523Z,72.90
2019-02-19T12:15:34.957Z,71.60
2019-02-19T12:16:34.970Z,70.20
2019-02-19T12:17:45.354Z,68.10
2019-02-19T12:18:58.326Z,67.90
2019-02-19T12:20:06.453Z,70.00
2019-02-19T12:21:12.291Z,74.00
2019-02-19T12:22:28.828Z,78.00
2019-02-19T12:23:37.547Z,81.60
2019-02-19T12:24:43.964Z,87.70
2019-02-19T12:25:49.208Z,91.40
2019-02-19T12:26:56.350Z,93.10
2019-02-19T12:28:01.964Z,95.10
2019-02-19T12:29:07.338Z,97.30
2019-02-19T12:30:13.189Z,98.50
2019-02-19T12:31:18.259Z,99.20
2019-02-19T12:32:24.107Z,99.40
2019-02-19T12:33:29.579Z,99.20
2019-02-19T12:34:35.499Z,98.90
2019-02-19T12:35:47.153Z,97.90
2019-02-19T12:36:55.034Z,96.30
2019-02-19T12:38:03.374Z,96.30
2019-02-19T12:39:08.690Z,97.10
2019-02-19T12:40:16.531Z,96.90
2019-02-19T12:41:21.682Z,95.40
2019-02-19T12:42:28.800Z,93.70
2019-02-19T12:43:33.754Z,91.30
2019-02-19T12:44:39.399Z,90.00
2019-02-19T12:45:44.345Z,87.80
2019-02-19T12:46:53.770Z,83.00
2019-02-19T12:48:01.264Z,80.20
2019-02-19T12:49:06.448Z,78.50
2019-02-19T12:50:12.999Z,75.80
2019-02-19T12:51:26.498Z,72.50
2019-02-19T12:52:30.563Z,69.60
2019-02-19T12:53:37.941Z,67.70
2019-02-19T12:54:46.654Z,65.90
2019-02-19T12:55:56.318Z,62.20
2019-02-19T12:57:03.035Z,60.40
2019-02-19T12:58:13.069Z,59.50
2019-02-19T12:59:19.556Z,58.80
2019-02-19T13:00:24.367Z,59.30
2019-02-19T13:01:31.174Z,58.20
2019-02-19T13:02:36.519Z,57.40
2019-02-19T13:03:41.568Z,55.80
2019-02-19T13:04:56.957Z,55.50
2019-02-19T13:06:04.717Z,54.00
2019-02-19T13:07:10.249Z,53.70
2019-02-19T13:08:15.313Z,54.30
2019-02-19T13:09:20.598Z,53.40
2019-02-19T13:10:28.530Z,53.90
2019-02-19T13:11:35.956Z,52.20
2019-02-19T13:12:41.796Z,53.70
2019-02-19T13:13:56.609Z,53.80
2019-02-19T13:15:01.696Z,54.30
2019-02-19T13:16:06.899Z,54.40
2019-02-19T13:17:13.360Z,53.30
2019-02-19T13:18:20.187Z,51.50
2019-02-19T13:19:25.687Z,51.80
2019-02-19T13:20:34.461Z,52.60
2019-02-19T13:21:39.310Z,53.40
2019-02-19T13:22:44.336Z,53.90
2019-02-19T13:24:03.116Z,54.70
2019-02-19T13:25:13.518Z,54.80
2019-02-19T13:26:18.257Z,55.90
2019-02-19T13:27:23.484Z,56.90
2019-02-19T13:28:31.600Z,57.50
2019-02-19T13:29:39.125Z,58.60
2019-02-19T13:30:44.187Z,59.30
2019-02-19T13:32:08.653Z,62.00
2019-02-19T13:33:23.880Z,65.00
2019-02-19T13:34:29.806Z,68.50
2019-02-19T13:35:34.998Z,72.10
2019-02-19T13:36:40.244Z,76.00
2019-02-19T13:37:47.747Z,79.90
2019-02-19T13:38:52.585Z,82.70
2019-02-19T13:40:06.036Z,85.60
2019-02-19T13:41:13.181Z,87.30
2019-02-19T13:42:23.952Z,90.10
2019-02-19T13:43:39.932Z,91.10
2019-02-19T13:45:05.427Z,92.10
2019-02-19T13:46:22.123Z,93.20
2019-02-19T13:47:26.681Z,94.40
2019-02-19T13:48:32.036Z,95.50
2019-02-19T13:49:37.177Z,95.60
2019-02-19T13:50:45.080Z,96.40
2019-02-19T13:51:51.688Z,96.90
2019-02-19T13:53:15.970Z,96.60
2019-02-19T13:54:35.110Z,96.70
2019-02-19T13:55:51.596Z,97.30
2019-02-19T13:56:59.701Z,96.90
2019-02-19T13:58:08.654Z,96.20
2019-02-19T13:59:17.305Z,96.30
2019-02-19T14:00:29.978Z,96.50
2019-02-19T14:01:41.129Z,96.80
2019-02-19T14:02:50.596Z,96.80
2019-02-19T14:03:56.263Z,97.70
2019-02-19T14:05:01.339Z,98.00
2019-02-19T14:06:18.149Z,98.60
2019-02-19T14:07:27.110Z,99.20
2019-02-19T14:08:32.694Z,99.80
2019-02-19T14:09:41.167Z,99.90
2019-02-19T14:10:50.107Z,99.90
2019-02-19T14:12:03.008Z,99.90
2019-02-19T14:13:32.268Z,99.90
2019-02-19T14:14:52.795Z,99.90
2019-02-19T14:16:25.840Z,99.90
2019-02-19T14:17:34.195Z,99.90
2019-02-19T14:19:04.092Z,99.90
2019-02-19T14:20:26.451Z,99.90
2019-02-19T14:21:53.815Z,99.90
2019-02-19T14:23:32.668Z,99.90